Muar, Malaysia
Current Conditions -  °F | °C
As of 4:00 PM on Sunday 21 Dec 2014 (Local Time) from WMKM Reporting Station
Thunderstorm Thunderstorm  
Wind Chill: 79°   Ceiling: 26000
Heat Index: 83°   Visibility: 4mi
Dew Point: 77°   Wind: 2mph
Humidity: 94%   Direction: 300°WNW
Pressure: 29.71"   Gusts: NA
Location:  2.04°N, 102.57°E
Report Text: WMKM 210800Z 30002KT 6000 -TSRA FEW010 FEW017CB SCT026 BKN260 26/25 Q1006 RETSRA
Loading
Personal Weather Stations






























Interactive Weather Map New forecast layout! Learn more

10-Day Weather Forecast

Advertisements
Track Severe Weather on mobile